createdAt,value
2017-08-30T00:00:42.713Z,27.18
2017-08-30T00:02:50.438Z,27.41
2017-08-30T00:04:59.387Z,27.50
2017-08-30T00:07:05.810Z,26.19
2017-08-30T00:09:12.171Z,26.06
2017-08-30T00:11:18.644Z,25.98
2017-08-30T00:13:24.331Z,25.80
2017-08-30T00:15:30.269Z,26.17
2017-08-30T00:17:36.410Z,26.84
2017-08-30T00:19:43.552Z,27.35
2017-08-30T00:21:51.633Z,27.48
2017-08-30T00:24:02.910Z,27.68
2017-08-30T00:26:32.567Z,27.12
2017-08-30T00:28:39.474Z,27.22
2017-08-30T00:30:47.539Z,27.03
2017-08-30T00:32:55.713Z,27.13
2017-08-30T00:35:01.838Z,27.20
2017-08-30T00:37:08.381Z,26.86
2017-08-30T00:39:14.581Z,26.88
2017-08-30T00:41:21.167Z,26.44
2017-08-30T00:43:27.596Z,26.09
2017-08-30T00:45:34.185Z,26.26
2017-08-30T00:47:42.515Z,26.73
2017-08-30T00:49:51.191Z,26.73
2017-08-30T00:51:59.826Z,26.61
2017-08-30T00:54:05.676Z,26.55
2017-08-30T00:56:12.271Z,26.58
2017-08-30T00:58:18.587Z,27.14
2017-08-30T01:00:25.004Z,26.91
2017-08-30T01:02:31.489Z,27.03
2017-08-30T01:04:38.215Z,27.04
2017-08-30T01:06:49.956Z,26.94
2017-08-30T01:08:58.682Z,27.27
2017-08-30T01:11:04.824Z,27.07
2017-08-30T01:13:11.141Z,27.24
2017-08-30T01:15:17.492Z,26.99
2017-08-30T01:17:24.131Z,27.33
2017-08-30T01:19:30.408Z,27.35
2017-08-30T01:21:36.921Z,26.72
2017-08-30T01:23:45.877Z,26.32
2017-08-30T01:25:54.676Z,27.02
2017-08-30T01:28:01.202Z,26.91
2017-08-30T01:30:08.452Z,26.49
2017-08-30T01:32:15.189Z,26.67
2017-08-30T01:34:21.248Z,26.86
2017-08-30T01:36:27.557Z,26.42
2017-08-30T01:38:34.397Z,26.52
2017-08-30T01:40:45.225Z,26.71
2017-08-30T01:42:54.560Z,26.36
2017-08-30T01:45:02.429Z,26.68
2017-08-30T01:47:08.934Z,26.56
2017-08-30T01:49:19.966Z,26.71
2017-08-30T01:51:26.186Z,26.34
2017-08-30T01:53:32.328Z,26.41
2017-08-30T01:55:40.355Z,26.07
2017-08-30T01:57:48.376Z,26.44
2017-08-30T01:59:56.454Z,26.32
2017-08-30T02:02:02.720Z,26.82
2017-08-30T02:04:10.080Z,26.66
2017-08-30T02:06:16.214Z,26.90
2017-08-30T02:08:22.512Z,26.46
2017-08-30T02:10:29.060Z,26.34
2017-08-30T02:12:35.284Z,26.19
2017-08-30T02:14:42.335Z,26.18
2017-08-30T02:16:51.960Z,26.06
2017-08-30T02:19:03.911Z,26.29
2017-08-30T02:21:11.425Z,25.95
2017-08-30T02:23:46.495Z,26.08
2017-08-30T02:25:58.220Z,25.95
2017-08-30T02:28:06.517Z,26.06
2017-08-30T02:30:12.102Z,26.08
2017-08-30T02:32:17.898Z,26.23
2017-08-30T02:34:25.009Z,25.96
2017-08-30T02:36:31.639Z,26.24
2017-08-30T02:38:39.903Z,26.02
2017-08-30T02:40:56.960Z,26.09
2017-08-30T02:43:04.894Z,26.14
2017-08-30T02:45:11.146Z,26.04
2017-08-30T02:47:17.869Z,26.46
2017-08-30T02:49:24.534Z,26.41
2017-08-30T02:51:34.668Z,26.58
2017-08-30T02:53:42.483Z,26.20
2017-08-30T02:55:53.832Z,26.34
2017-08-30T02:58:00.703Z,26.47
2017-08-30T03:00:07.931Z,26.39
2017-08-30T03:02:20.050Z,26.42
2017-08-30T03:04:26.346Z,26.37
2017-08-30T03:06:32.910Z,26.46
2017-08-30T03:08:40.197Z,26.59
2017-08-30T03:10:49.355Z,26.61
2017-08-30T03:12:58.322Z,26.33
2017-08-30T03:15:04.735Z,26.34
2017-08-30T03:17:11.581Z,26.31
2017-08-30T03:19:17.645Z,25.93
2017-08-30T03:21:24.152Z,25.86
2017-08-30T03:23:30.868Z,25.82
2017-08-30T03:25:36.899Z,26.06
2017-08-30T03:27:46.827Z,26.01
2017-08-30T03:29:55.051Z,25.65
2017-08-30T03:32:01.230Z,25.78
2017-08-30T03:34:07.265Z,25.93
2017-08-30T03:36:13.295Z,25.96
2017-08-30T03:38:19.834Z,26.07
2017-08-30T03:40:25.922Z,25.70
2017-08-30T03:42:32.342Z,25.87
2017-08-30T03:44:39.873Z,26.05
2017-08-30T03:46:46.841Z,25.99
2017-08-30T03:48:54.100Z,25.69
2017-08-30T03:51:03.374Z,25.66
2017-08-30T03:53:09.524Z,25.73
2017-08-30T03:55:15.489Z,25.70
2017-08-30T03:57:21.631Z,25.12
2017-08-30T03:59:27.277Z,25.36
2017-08-30T04:01:34.243Z,26.12
2017-08-30T04:03:41.282Z,26.63
2017-08-30T04:05:51.343Z,26.93
2017-08-30T04:07:59.315Z,27.06
2017-08-30T04:10:06.740Z,27.09
2017-08-30T04:12:13.025Z,27.07
2017-08-30T04:14:19.624Z,27.12
2017-08-30T04:16:25.622Z,26.90
2017-08-30T04:18:34.006Z,27.21
2017-08-30T04:20:43.718Z,27.25
2017-08-30T04:22:55.799Z,27.19
2017-08-30T04:25:03.186Z,26.47
2017-08-30T04:27:09.464Z,25.77
2017-08-30T04:29:15.466Z,25.96
2017-08-30T04:31:21.535Z,26.69
2017-08-30T04:33:28.526Z,26.92
2017-08-30T04:35:34.076Z,26.69
2017-08-30T04:37:41.271Z,26.82
2017-08-30T04:39:50.394Z,26.89
2017-08-30T04:41:58.364Z,26.18
2017-08-30T04:44:04.336Z,25.63
2017-08-30T04:46:15.417Z,25.28
2017-08-30T04:48:22.138Z,25.03
2017-08-30T04:50:28.446Z,25.01
2017-08-30T04:52:34.063Z,24.78
2017-08-30T04:54:41.204Z,25.01
2017-08-30T04:56:50.308Z,25.21
2017-08-30T04:58:57.414Z,25.65
2017-08-30T05:01:03.213Z,25.69
2017-08-30T05:03:09.245Z,24.90
2017-08-30T05:05:14.855Z,25.18
2017-08-30T05:07:22.685Z,25.36
2017-08-30T05:09:30.822Z,25.51
2017-08-30T05:11:39.417Z,25.01
2017-08-30T05:13:46.784Z,25.20
2017-08-30T05:15:55.348Z,25.30
2017-08-30T05:18:03.445Z,25.25
2017-08-30T05:20:09.023Z,25.20
2017-08-30T05:22:15.224Z,25.32
2017-08-30T05:24:21.229Z,25.51
2017-08-30T05:26:26.762Z,25.38
2017-08-30T05:28:32.402Z,25.40
2017-08-30T05:30:40.810Z,25.11
2017-08-30T05:32:51.468Z,24.70
2017-08-30T05:34:58.426Z,24.66
2017-08-30T05:37:07.159Z,24.44
2017-08-30T05:39:14.143Z,24.67
2017-08-30T05:41:20.367Z,24.95
2017-08-30T05:43:26.782Z,25.08
2017-08-30T05:45:32.476Z,25.31
2017-08-30T05:47:42.414Z,25.58
2017-08-30T05:49:49.559Z,25.34
2017-08-30T05:51:59.672Z,25.22
2017-08-30T05:54:05.921Z,25.27
2017-08-30T05:56:17.344Z,25.12
2017-08-30T05:58:23.877Z,25.12
2017-08-30T06:00:29.927Z,25.31
2017-08-30T06:02:36.422Z,25.19
2017-08-30T06:04:44.948Z,25.16
2017-08-30T06:06:55.579Z,25.25
2017-08-30T06:09:02.288Z,25.41
2017-08-30T06:11:09.566Z,25.71
2017-08-30T06:15:26.557Z,26.08
2017-08-30T06:17:33.581Z,26.19
2017-08-30T06:19:40.602Z,25.50
2017-08-30T06:21:48.578Z,25.74
2017-08-30T06:23:58.650Z,26.04
2017-08-30T06:26:05.653Z,25.97
2017-08-30T06:28:13.017Z,26.07
2017-08-30T06:30:19.934Z,25.96
2017-08-30T06:32:26.087Z,26.28
2017-08-30T06:34:32.740Z,26.06
2017-08-30T06:36:40.647Z,26.29
2017-08-30T06:38:54.877Z,26.44
2017-08-30T06:41:01.570Z,26.30
2017-08-30T06:43:07.254Z,26.46
2017-08-30T06:45:13.863Z,26.60
2017-08-30T06:47:19.648Z,26.26
2017-08-30T06:49:25.582Z,26.34
2017-08-30T06:51:31.439Z,26.59
2017-08-30T06:53:37.214Z,26.70
2017-08-30T06:55:46.240Z,26.65
2017-08-30T06:57:59.546Z,26.96
2017-08-30T07:00:08.951Z,26.97
2017-08-30T07:02:16.363Z,27.03
2017-08-30T07:04:22.982Z,27.35
2017-08-30T07:06:29.304Z,27.14
2017-08-30T07:08:35.336Z,27.70
2017-08-30T07:10:46.239Z,27.48
2017-08-30T07:12:53.084Z,27.67
2017-08-30T07:14:59.511Z,27.71
2017-08-30T07:17:05.290Z,27.68
2017-08-30T07:19:11.266Z,27.72
2017-08-30T07:21:17.535Z,27.74
2017-08-30T07:23:25.024Z,27.59
2017-08-30T07:25:31.173Z,27.85
2017-08-30T07:27:38.793Z,27.81
2017-08-30T07:29:46.338Z,27.85
2017-08-30T07:31:55.283Z,27.71
2017-08-30T07:34:02.005Z,27.85
2017-08-30T07:36:09.601Z,28.02
2017-08-30T07:38:16.946Z,27.89
2017-08-30T07:40:23.405Z,27.78
2017-08-30T07:42:30.004Z,27.90
2017-08-30T07:44:36.510Z,27.88
2017-08-30T07:46:49.995Z,27.83
2017-08-30T07:48:58.875Z,27.87
2017-08-30T07:51:05.956Z,27.87
2017-08-30T07:53:13.964Z,27.97
2017-08-30T07:55:21.427Z,27.92
2017-08-30T07:57:27.482Z,27.94
2017-08-30T07:59:34.106Z,27.91
2017-08-30T08:01:43.539Z,27.99
2017-08-30T08:03:50.761Z,27.99
2017-08-30T08:06:03.887Z,27.91
2017-08-30T08:08:11.066Z,27.86
2017-08-30T08:10:18.666Z,27.91
2017-08-30T08:12:30.098Z,27.97
2017-08-30T08:14:37.004Z,28.08
2017-08-30T08:16:47.890Z,28.06
2017-08-30T08:18:57.032Z,28.15
2017-08-30T08:21:03.187Z,27.99
2017-08-30T08:23:11.468Z,27.97
2017-08-30T08:25:19.696Z,27.97
2017-08-30T08:27:25.774Z,27.92
2017-08-30T08:29:36.132Z,27.93
2017-08-30T08:31:46.067Z,27.93
2017-08-30T08:33:54.975Z,28.00
2017-08-30T08:36:00.960Z,27.95
2017-08-30T08:38:07.946Z,27.96
2017-08-30T08:40:14.076Z,27.98
2017-08-30T08:42:19.674Z,27.98
2017-08-30T08:44:29.154Z,27.98
2017-08-30T08:46:35.321Z,28.01
2017-08-30T08:48:44.648Z,28.04
2017-08-30T08:50:59.323Z,28.06
2017-08-30T08:53:06.646Z,28.08
2017-08-30T08:55:13.219Z,28.07
2017-08-30T08:57:21.152Z,28.13
2017-08-30T08:59:28.951Z,28.18
2017-08-30T09:01:35.991Z,28.29
2017-08-30T09:03:47.472Z,28.27
2017-08-30T09:05:54.507Z,28.23
2017-08-30T09:08:01.257Z,28.34
2017-08-30T09:10:09.643Z,28.25
2017-08-30T09:12:15.869Z,28.17
2017-08-30T09:14:22.104Z,28.17
2017-08-30T09:16:28.179Z,28.20
2017-08-30T09:18:34.225Z,28.25
2017-08-30T09:20:40.652Z,28.23
2017-08-30T09:22:47.905Z,28.21
2017-08-30T09:24:56.208Z,28.37
2017-08-30T09:27:02.132Z,28.39
2017-08-30T09:29:07.795Z,28.47
2017-08-30T09:31:13.477Z,28.53
2017-08-30T09:33:19.787Z,28.46
2017-08-30T09:35:27.121Z,28.63
2017-08-30T09:37:34.011Z,28.46
2017-08-30T09:39:41.499Z,28.39
2017-08-30T09:41:48.966Z,28.38
2017-08-30T09:43:59.727Z,28.35
2017-08-30T09:46:05.997Z,28.40
2017-08-30T09:48:12.821Z,28.44
2017-08-30T09:50:19.283Z,28.41
2017-08-30T09:52:25.221Z,28.47
2017-08-30T09:54:30.814Z,28.47
2017-08-30T09:56:36.548Z,28.58
2017-08-30T09:58:47.395Z,28.71
2017-08-30T10:00:55.254Z,28.73
2017-08-30T10:03:02.072Z,29.00
2017-08-30T10:05:08.636Z,28.73
2017-08-30T10:07:14.750Z,28.89
2017-08-30T10:09:20.599Z,28.77
2017-08-30T10:11:26.131Z,28.99
2017-08-30T10:13:32.028Z,29.03
2017-08-30T10:15:39.127Z,29.11
2017-08-30T10:17:47.675Z,28.97
2017-08-30T10:19:53.953Z,28.89
2017-08-30T10:22:00.763Z,28.79
2017-08-30T10:24:07.710Z,28.85
2017-08-30T10:26:13.252Z,29.10
2017-08-30T10:28:18.834Z,29.17
2017-08-30T10:30:29.456Z,29.22
2017-08-30T10:32:37.605Z,29.14
2017-08-30T10:34:45.254Z,29.20
2017-08-30T10:36:58.879Z,29.12
2017-08-30T10:39:07.907Z,29.17
2017-08-30T10:41:19.428Z,29.00
2017-08-30T10:43:26.220Z,28.87
2017-08-30T10:45:32.572Z,28.87
2017-08-30T10:47:39.149Z,29.00
2017-08-30T10:49:47.092Z,28.87
2017-08-30T10:51:52.982Z,28.80
2017-08-30T10:54:08.934Z,28.91
2017-08-30T10:56:14.827Z,28.87
2017-08-30T10:58:20.546Z,28.92
2017-08-30T11:00:26.294Z,29.00
2017-08-30T11:02:37.287Z,29.20
2017-08-30T11:07:03.869Z,28.99
2017-08-30T11:09:11.779Z,29.12
2017-08-30T11:11:19.834Z,29.11
2017-08-30T11:13:28.369Z,29.14
2017-08-30T11:15:34.849Z,29.41
2017-08-30T11:17:44.621Z,29.43
2017-08-30T11:19:54.858Z,29.48
2017-08-30T11:22:02.506Z,29.58
2017-08-30T11:24:08.112Z,29.40
2017-08-30T11:26:14.235Z,29.55
2017-08-30T11:28:20.733Z,29.50
2017-08-30T11:30:26.424Z,29.24
2017-08-30T11:32:32.130Z,29.35
2017-08-30T11:34:38.606Z,29.07
2017-08-30T11:36:47.059Z,29.12
2017-08-30T11:38:55.761Z,29.14
2017-08-30T11:41:02.012Z,29.18
2017-08-30T11:43:07.870Z,29.17
2017-08-30T11:45:13.563Z,29.22
2017-08-30T11:47:19.465Z,29.05
2017-08-30T11:49:25.055Z,29.36
2017-08-30T11:51:30.580Z,29.55
2017-08-30T11:53:37.544Z,29.47
2017-08-30T11:55:46.853Z,29.33
2017-08-30T11:57:57.506Z,29.25
2017-08-30T12:00:03.489Z,29.24
2017-08-30T12:02:10.272Z,29.23
2017-08-30T12:04:16.453Z,29.51
2017-08-30T12:06:22.033Z,29.42
2017-08-30T12:08:27.654Z,29.39
2017-08-30T12:10:33.230Z,29.30
2017-08-30T12:12:39.928Z,29.33
2017-08-30T12:14:48.176Z,29.64
2017-08-30T12:16:54.913Z,30.35
2017-08-30T12:19:01.816Z,30.38
2017-08-30T12:21:07.912Z,30.23
2017-08-30T12:23:13.390Z,30.41
2017-08-30T12:25:19.481Z,31.04
2017-08-30T12:27:26.628Z,31.19
2017-08-30T12:29:42.647Z,30.95
2017-08-30T12:31:56.720Z,31.02
2017-08-30T12:34:02.313Z,30.79
2017-08-30T12:36:07.858Z,30.18
2017-08-30T12:40:19.572Z,30.30
2017-08-30T12:42:26.377Z,31.08
2017-08-30T12:44:32.827Z,31.57
2017-08-30T12:46:40.355Z,31.74
2017-08-30T12:48:53.887Z,31.42
2017-08-30T12:51:01.617Z,31.41
2017-08-30T12:53:08.523Z,31.97
2017-08-30T12:55:14.839Z,31.87
2017-08-30T12:57:20.965Z,31.90
2017-08-30T12:59:27.196Z,32.04
2017-08-30T13:01:33.303Z,32.11
2017-08-30T13:03:48.591Z,31.90
2017-08-30T13:05:58.973Z,31.27
2017-08-30T13:08:09.267Z,31.25
2017-08-30T13:10:27.540Z,31.58
2017-08-30T13:12:33.869Z,32.15
2017-08-30T13:14:41.085Z,32.37
2017-08-30T13:16:49.368Z,32.49
2017-08-30T13:18:57.980Z,32.39
2017-08-30T13:21:03.996Z,32.56
2017-08-30T13:23:10.777Z,32.46
2017-08-30T13:25:16.995Z,32.50
2017-08-30T13:27:24.775Z,32.51
2017-08-30T13:29:31.716Z,32.24
2017-08-30T13:31:39.908Z,32.43
2017-08-30T13:33:48.245Z,32.45
2017-08-30T13:35:58.423Z,32.58
2017-08-30T13:38:12.043Z,32.99
2017-08-30T13:40:18.621Z,33.15
2017-08-30T13:42:24.482Z,33.06
2017-08-30T13:44:31.874Z,33.27
2017-08-30T13:46:43.520Z,33.20
2017-08-30T13:48:54.668Z,33.35
2017-08-30T13:51:03.590Z,33.49
2017-08-30T13:53:16.939Z,33.04
2017-08-30T13:55:29.244Z,33.18
2017-08-30T14:02:02.056Z,33.22
2017-08-30T14:04:08.732Z,33.14
2017-08-30T14:06:18.020Z,32.93
2017-08-30T14:08:25.149Z,33.22
2017-08-30T14:10:44.528Z,32.92
2017-08-30T14:12:52.314Z,33.36
2017-08-30T14:14:59.630Z,33.14
2017-08-30T14:17:05.855Z,32.93
2017-08-30T14:19:11.944Z,32.74
2017-08-30T14:21:18.415Z,33.03
2017-08-30T14:23:29.300Z,32.76
2017-08-30T14:25:38.557Z,32.55
2017-08-30T14:27:47.273Z,32.12
2017-08-30T14:29:57.193Z,31.62
2017-08-30T14:32:03.968Z,31.56
2017-08-30T14:34:10.028Z,31.59
2017-08-30T14:36:16.119Z,31.65
2017-08-30T14:38:22.344Z,31.95
2017-08-30T14:40:31.837Z,31.62
2017-08-30T14:48:36.406Z,31.31
2017-08-30T14:50:47.464Z,31.26
2017-08-30T14:52:56.264Z,31.13
2017-08-30T14:55:02.028Z,31.25
2017-08-30T14:57:08.469Z,30.90
2017-08-30T14:59:15.878Z,31.10
2017-08-30T15:01:21.376Z,31.10
2017-08-30T15:03:27.884Z,31.20
2017-08-30T15:06:21.953Z,31.10
2017-08-30T15:08:32.945Z,31.38
2017-08-30T15:10:39.180Z,31.16
2017-08-30T15:12:48.254Z,31.29
2017-08-30T15:14:56.953Z,31.52
2017-08-30T15:17:03.739Z,31.81
2017-08-30T15:19:09.512Z,31.79
2017-08-30T15:21:16.761Z,31.56
2017-08-30T15:23:23.653Z,31.67
2017-08-30T15:25:29.815Z,31.56
2017-08-30T15:27:35.601Z,31.59
2017-08-30T15:29:42.423Z,31.74
2017-08-30T15:31:49.938Z,31.65
2017-08-30T15:33:56.802Z,31.81
2017-08-30T15:36:03.374Z,31.83
2017-08-30T15:38:09.433Z,31.81
2017-08-30T15:40:16.013Z,31.74
2017-08-30T15:42:22.386Z,31.69
2017-08-30T15:44:28.892Z,31.53
2017-08-30T15:46:35.085Z,31.69
2017-08-30T15:48:44.485Z,31.44
2017-08-30T15:50:52.317Z,31.34
2017-08-30T15:53:00.000Z,31.34
2017-08-30T15:55:10.070Z,31.33
2017-08-30T15:57:16.781Z,31.32
2017-08-30T15:59:23.176Z,31.39
2017-08-30T16:01:29.692Z,31.33
2017-08-30T16:03:36.288Z,31.34
2017-08-30T16:05:43.738Z,31.43
2017-08-30T16:07:53.556Z,31.21
2017-08-30T16:09:59.627Z,31.36
2017-08-30T16:12:05.497Z,31.19
2017-08-30T16:14:12.595Z,31.11
2017-08-30T16:16:18.460Z,30.99
2017-08-30T16:18:24.489Z,30.84
2017-08-30T16:20:31.430Z,30.89
2017-08-30T16:22:38.395Z,30.86
2017-08-30T16:24:46.266Z,30.67
2017-08-30T16:26:54.625Z,30.62
2017-08-30T16:29:01.331Z,30.44
2017-08-30T16:39:37.889Z,30.66
2017-08-30T16:41:49.380Z,30.50
2017-08-30T16:43:56.145Z,30.23
2017-08-30T16:46:03.834Z,30.18
2017-08-30T16:48:11.352Z,30.00
2017-08-30T16:50:18.367Z,30.22
2017-08-30T16:52:26.012Z,30.05
2017-08-30T16:54:35.017Z,30.11
2017-08-30T16:56:43.571Z,30.07
2017-08-30T16:58:55.387Z,30.06
2017-08-30T17:01:02.699Z,29.96
2017-08-30T17:03:22.059Z,29.93
2017-08-30T17:05:28.837Z,29.97
2017-08-30T17:07:40.158Z,30.10
2017-08-30T17:09:53.038Z,30.07
2017-08-30T17:12:04.892Z,30.08
2017-08-30T17:14:13.388Z,30.07
2017-08-30T17:16:22.337Z,30.13
2017-08-30T17:18:34.619Z,30.02
2017-08-30T17:24:19.232Z,29.98
2017-08-30T17:26:44.168Z,29.97
2017-08-30T17:29:18.869Z,29.91
2017-08-30T17:31:33.941Z,29.90
2017-08-30T17:35:55.705Z,29.76
2017-08-30T17:38:03.552Z,29.75
2017-08-30T17:40:10.706Z,29.70
2017-08-30T17:42:18.142Z,29.56
2017-08-30T17:44:24.635Z,29.66
2017-08-30T17:46:31.382Z,29.58
2017-08-30T17:48:37.607Z,29.68
2017-08-30T17:50:45.840Z,29.57
2017-08-30T17:52:55.024Z,29.53
2017-08-30T17:55:01.996Z,29.45
2017-08-30T17:57:15.917Z,29.53
2017-08-30T17:59:26.273Z,29.54
2017-08-30T18:01:34.724Z,29.50
2017-08-30T18:03:42.703Z,29.33
2017-08-30T18:06:37.424Z,29.38
2017-08-30T18:08:43.969Z,29.34
2017-08-30T18:10:50.592Z,29.33
2017-08-30T18:15:00.649Z,29.27
2017-08-30T18:17:08.902Z,29.29
2017-08-30T18:19:42.727Z,29.24
2017-08-30T18:26:39.650Z,29.21
2017-08-30T18:29:11.587Z,29.17
2017-08-30T18:31:55.775Z,29.19
2017-08-30T18:41:03.532Z,29.15
2017-08-30T18:43:12.168Z,29.08
2017-08-30T18:45:18.947Z,29.07
2017-08-30T18:47:25.352Z,29.02
2017-08-30T18:49:36.795Z,29.03
2017-08-30T18:51:49.465Z,28.99
2017-08-30T18:53:58.936Z,28.92
2017-08-30T18:56:06.397Z,28.97
2017-08-30T18:58:14.258Z,28.95
2017-08-30T19:00:24.816Z,28.92
2017-08-30T19:02:32.571Z,28.94
2017-08-30T19:04:42.578Z,29.11
2017-08-30T19:06:52.999Z,28.94
2017-08-30T19:09:01.888Z,29.01
2017-08-30T19:11:08.641Z,28.97
2017-08-30T19:19:02.594Z,28.91
2017-08-30T19:21:08.913Z,28.93
2017-08-30T19:23:16.254Z,28.88
2017-08-30T19:25:23.425Z,28.88
2017-08-30T19:29:55.159Z,28.95
2017-08-30T19:32:05.209Z,28.83
2017-08-30T19:34:11.362Z,28.91
2017-08-30T19:42:34.719Z,28.81
2017-08-30T19:45:56.006Z,28.81
2017-08-30T19:54:35.290Z,28.82
2017-08-30T20:00:06.925Z,28.81
2017-08-30T20:02:13.240Z,28.88
2017-08-30T20:04:24.339Z,28.75
2017-08-30T20:06:31.007Z,28.80
2017-08-30T20:08:39.825Z,28.78
2017-08-30T20:10:46.310Z,28.75
2017-08-30T20:12:53.176Z,28.73
2017-08-30T20:14:59.000Z,28.75
2017-08-30T20:39:52.928Z,28.73
2017-08-30T20:46:53.605Z,28.64
2017-08-30T21:00:22.831Z,28.70
2017-08-30T21:02:29.333Z,28.55
2017-08-30T21:04:35.470Z,28.59
2017-08-30T21:06:46.444Z,28.46
2017-08-30T21:08:54.867Z,28.59
2017-08-30T21:11:00.600Z,28.48
2017-08-30T21:13:07.746Z,28.51
2017-08-30T21:15:14.505Z,28.64
2017-08-30T21:17:21.272Z,28.62
2017-08-30T21:19:27.738Z,28.49
2017-08-30T21:21:33.264Z,28.50
2017-08-30T21:23:41.102Z,28.25
2017-08-30T21:25:52.653Z,28.30
2017-08-30T21:28:00.113Z,28.37
2017-08-30T21:30:37.041Z,28.25
2017-08-30T21:32:47.474Z,28.33
2017-08-30T21:34:54.700Z,28.14
2017-08-30T21:37:00.925Z,28.14
2017-08-30T21:39:08.266Z,28.13
2017-08-30T21:41:15.062Z,27.89
2017-08-30T21:43:21.118Z,27.88
2017-08-30T21:45:35.772Z,27.78
2017-08-30T21:47:43.154Z,27.66
2017-08-30T21:49:53.994Z,27.86
2017-08-30T21:52:04.326Z,28.14
2017-08-30T21:54:10.840Z,27.90
2017-08-30T21:56:17.721Z,28.06
2017-08-30T21:58:23.803Z,28.18
2017-08-30T22:00:29.603Z,28.35
2017-08-30T22:02:35.346Z,28.18
2017-08-30T22:04:44.860Z,28.07
2017-08-30T22:06:52.354Z,28.03
2017-08-30T22:08:59.403Z,28.21
2017-08-30T22:11:06.044Z,27.90
2017-08-30T22:13:12.408Z,27.90
2017-08-30T22:15:18.604Z,27.72
2017-08-30T22:17:25.470Z,27.89
2017-08-30T22:19:31.926Z,27.90
2017-08-30T22:21:38.324Z,27.93
2017-08-30T22:23:47.112Z,27.90
2017-08-30T22:25:54.003Z,27.86
2017-08-30T22:27:59.696Z,28.05
2017-08-30T22:30:06.723Z,28.00
2017-08-30T22:32:13.386Z,27.83
2017-08-30T22:34:19.933Z,27.85
2017-08-30T22:36:28.423Z,27.76
2017-08-30T22:38:35.454Z,27.86
2017-08-30T22:40:46.080Z,27.82
2017-08-30T22:42:57.296Z,27.71
2017-08-30T22:45:03.440Z,28.30
2017-08-30T22:47:09.823Z,28.25
2017-08-30T22:49:17.133Z,28.44
2017-08-30T22:51:23.968Z,28.44
2017-08-30T22:53:29.981Z,28.28
2017-08-30T22:55:40.948Z,28.06
2017-08-30T22:57:52.999Z,28.02
2017-08-30T22:59:59.992Z,27.73
2017-08-30T23:02:06.051Z,27.77
2017-08-30T23:04:11.948Z,27.78
2017-08-30T23:06:18.419Z,27.73
2017-08-30T23:08:24.239Z,27.76
2017-08-30T23:10:30.424Z,27.93
2017-08-30T23:12:36.014Z,28.13
2017-08-30T23:14:46.261Z,27.88
2017-08-30T23:16:54.004Z,27.64
2017-08-30T23:18:59.962Z,27.77
2017-08-30T23:21:06.423Z,27.89
2017-08-30T23:23:12.894Z,27.75
2017-08-30T23:25:19.180Z,27.64
2017-08-30T23:27:24.563Z,27.63
2017-08-30T23:29:30.712Z,27.77
2017-08-30T23:31:36.986Z,27.81
2017-08-30T23:33:47.186Z,27.98
2017-08-30T23:35:55.640Z,28.10
2017-08-30T23:38:02.599Z,28.11
2017-08-30T23:40:09.113Z,28.10
2017-08-30T23:42:15.404Z,28.11
2017-08-30T23:44:21.321Z,28.25
2017-08-30T23:46:27.516Z,28.32
2017-08-30T23:48:33.912Z,28.01
2017-08-30T23:50:41.443Z,27.94
2017-08-30T23:52:50.712Z,28.05
2017-08-30T23:54:57.704Z,28.17
2017-08-30T23:57:03.634Z,28.15
2017-08-30T23:59:10.512Z,27.99
